createdAt,value
2018-02-12T00:00:58.270Z,99.70
2018-02-12T00:03:25.822Z,99.90
2018-02-12T00:05:54.115Z,99.90
2018-02-12T00:08:21.651Z,99.90
2018-02-12T00:10:49.977Z,99.90
2018-02-12T00:13:17.523Z,99.90
2018-02-12T00:15:45.058Z,99.90
2018-02-12T00:18:13.357Z,99.90
2018-02-12T00:20:40.894Z,99.90
2018-02-12T00:23:09.222Z,99.90
2018-02-12T00:25:36.752Z,99.90
2018-02-12T00:28:04.291Z,99.90
2018-02-12T00:30:32.596Z,99.90
2018-02-12T00:33:00.133Z,99.90
2018-02-12T00:35:27.699Z,99.90
2018-02-12T00:37:55.235Z,99.90
2018-02-12T00:40:23.552Z,99.90
2018-02-12T00:42:51.117Z,99.90
2018-02-12T00:45:24.025Z,99.90
2018-02-12T00:47:52.466Z,99.90
2018-02-12T00:50:20.004Z,99.90
2018-02-12T00:52:48.302Z,99.90
2018-02-12T00:55:15.845Z,99.90
2018-02-12T00:57:44.178Z,99.90
2018-02-12T01:00:11.734Z,99.90
2018-02-12T01:02:39.270Z,99.90
2018-02-12T01:05:06.833Z,99.90
2018-02-12T01:07:34.366Z,99.90
2018-02-12T01:10:05.639Z,99.90
2018-02-12T01:12:33.988Z,99.90
2018-02-12T01:15:02.401Z,99.90
2018-02-12T01:17:29.952Z,99.90
2018-02-12T01:19:57.477Z,99.90
2018-02-12T01:22:25.818Z,99.60
2018-02-12T01:24:53.359Z,99.60
2018-02-12T01:27:20.898Z,99.20
2018-02-12T01:29:51.494Z,98.40
2018-02-12T01:32:19.034Z,98.60
2018-02-12T01:34:46.612Z,99.10
2018-02-12T01:37:14.142Z,99.10
2018-02-12T01:39:42.478Z,99.40
2018-02-12T01:42:10.782Z,99.40
2018-02-12T01:44:38.316Z,99.40
2018-02-12T01:47:06.657Z,99.30
2018-02-12T01:49:34.196Z,99.30
2018-02-12T01:52:01.757Z,99.30
2018-02-12T01:54:29.291Z,99.00
2018-02-12T01:56:56.841Z,99.10
2018-02-12T01:59:24.375Z,99.10
2018-02-12T02:01:52.677Z,99.40
2018-02-12T02:04:20.298Z,99.20
2018-02-12T02:06:47.840Z,99.40
2018-02-12T02:09:15.384Z,99.40
2018-02-12T02:11:42.913Z,99.50
2018-02-12T02:14:10.450Z,99.50
2018-02-12T02:16:38.008Z,99.30
2018-02-12T02:19:05.547Z,99.10
2018-02-12T02:21:50.612Z,99.20
2018-02-12T02:24:18.152Z,98.80
2018-02-12T02:26:45.719Z,98.80
2018-02-12T02:29:13.266Z,97.40
2018-02-12T02:31:40.865Z,97.20
2018-02-12T02:34:08.372Z,96.90
2018-02-12T02:36:35.908Z,96.80
2018-02-12T02:39:03.465Z,96.90
2018-02-12T02:41:31.768Z,95.80
2018-02-12T02:43:59.327Z,95.80
2018-02-12T02:46:26.866Z,95.10
2018-02-12T02:48:55.161Z,95.90
2018-02-12T02:51:29.039Z,95.90
2018-02-12T02:53:56.726Z,95.60
2018-02-12T02:56:24.282Z,95.80
2018-02-12T02:58:52.593Z,95.60
2018-02-12T03:01:20.153Z,95.60
2018-02-12T03:03:47.685Z,95.30
2018-02-12T03:06:15.247Z,95.30
2018-02-12T03:08:42.793Z,95.50
2018-02-12T03:11:36.002Z,95.70
2018-02-12T03:14:03.557Z,95.60
2018-02-12T03:16:31.090Z,96.00
2018-02-12T03:18:58.618Z,96.00
2018-02-12T03:21:26.159Z,95.90
2018-02-12T03:23:53.695Z,95.50
2018-02-12T03:26:21.252Z,95.30
2018-02-12T03:28:52.276Z,95.30
2018-02-12T03:31:19.815Z,95.20
2018-02-12T03:33:48.107Z,95.20
2018-02-12T03:36:15.650Z,95.20
2018-02-12T03:38:43.975Z,95.50
2018-02-12T03:41:11.516Z,95.50
2018-02-12T03:43:39.046Z,95.50
2018-02-12T03:46:08.303Z,95.90
2018-02-12T03:48:35.839Z,95.90
2018-02-12T03:51:03.406Z,95.80
2018-02-12T03:53:30.960Z,95.60
2018-02-12T03:55:58.527Z,95.30
2018-02-12T03:58:26.074Z,95.60
2018-02-12T04:00:53.606Z,95.70
2018-02-12T04:03:21.934Z,95.80
2018-02-12T04:05:49.490Z,95.80
2018-02-12T04:08:17.029Z,95.70
2018-02-12T04:10:44.566Z,95.60
2018-02-12T04:13:12.862Z,95.60
2018-02-12T04:15:41.182Z,95.50
2018-02-12T04:18:11.961Z,95.50
2018-02-12T04:20:40.277Z,95.30
2018-02-12T04:23:07.815Z,95.30
2018-02-12T04:25:35.345Z,95.50
2018-02-12T04:28:03.649Z,95.20
2018-02-12T04:30:31.196Z,95.20
2018-02-12T04:32:58.772Z,95.30
2018-02-12T04:35:26.311Z,94.30
2018-02-12T04:37:54.613Z,93.90
2018-02-12T04:40:22.155Z,93.90
2018-02-12T04:42:50.450Z,94.00
2018-02-12T04:45:18.002Z,94.00
2018-02-12T04:47:45.546Z,93.90
2018-02-12T04:50:13.842Z,93.10
2018-02-12T04:52:41.371Z,93.10
2018-02-12T04:55:08.905Z,93.10
2018-02-12T04:57:36.467Z,93.20
2018-02-12T05:00:04.051Z,93.20
2018-02-12T05:02:31.587Z,93.20
2018-02-12T05:04:59.123Z,93.40
2018-02-12T05:07:26.664Z,93.20
2018-02-12T05:09:54.225Z,93.30
2018-02-12T05:12:34.318Z,93.50
2018-02-12T05:15:01.897Z,93.60
2018-02-12T05:17:29.437Z,93.70
2018-02-12T05:19:59.978Z,94.10
2018-02-12T05:22:27.518Z,94.00
2018-02-12T05:24:55.050Z,94.70
2018-02-12T05:27:22.595Z,94.10
2018-02-12T05:29:56.995Z,94.30
2018-02-12T05:32:24.557Z,94.10
2018-02-12T05:34:52.866Z,94.30
2018-02-12T05:37:20.409Z,94.30
2018-02-12T05:39:48.710Z,93.50
2018-02-12T05:42:16.246Z,93.40
2018-02-12T05:44:44.604Z,93.60
2018-02-12T05:47:12.917Z,93.50
2018-02-12T05:49:40.477Z,93.40
2018-02-12T05:52:08.013Z,93.10
2018-02-12T05:54:36.330Z,92.40
2018-02-12T05:57:03.904Z,92.40
2018-02-12T05:59:31.458Z,91.90
2018-02-12T06:02:03.263Z,92.20
2018-02-12T06:04:31.570Z,92.40
2018-02-12T06:06:59.106Z,92.40
2018-02-12T06:09:27.424Z,91.90
2018-02-12T06:11:54.951Z,91.90
2018-02-12T06:14:23.294Z,92.00
2018-02-12T06:16:50.842Z,92.00
2018-02-12T06:19:18.400Z,91.90
2018-02-12T06:21:45.929Z,91.60
2018-02-12T06:24:13.466Z,91.80
2018-02-12T06:26:41.800Z,91.70
2018-02-12T06:29:09.326Z,91.70
2018-02-12T06:31:36.884Z,91.50
2018-02-12T06:34:04.414Z,91.50
2018-02-12T06:36:32.726Z,92.00
2018-02-12T06:39:00.298Z,92.00
2018-02-12T06:41:27.843Z,92.30
2018-02-12T06:43:55.386Z,92.50
2018-02-12T06:46:23.688Z,92.60
2018-02-12T06:48:51.221Z,92.60
2018-02-12T06:51:19.543Z,93.20
2018-02-12T06:53:47.079Z,93.20
2018-02-12T06:56:14.628Z,93.40
2018-02-12T06:58:42.166Z,93.60
2018-02-12T07:01:16.534Z,93.60
2018-02-12T07:03:47.376Z,93.60
2018-02-12T07:06:18.178Z,93.80
2018-02-12T07:08:46.676Z,93.70
2018-02-12T07:11:14.215Z,93.80
2018-02-12T07:13:42.628Z,94.00
2018-02-12T07:16:10.930Z,93.70
2018-02-12T07:18:38.476Z,93.70
2018-02-12T07:21:06.036Z,93.50
2018-02-12T07:23:34.588Z,93.60
2018-02-12T07:26:02.130Z,93.80
2018-02-12T07:28:31.319Z,93.70
2018-02-12T07:30:59.639Z,93.20
2018-02-12T07:33:27.224Z,93.20
2018-02-12T07:35:54.766Z,93.20
2018-02-12T07:38:22.690Z,93.00
2018-02-12T07:43:44.394Z,92.80
2018-02-12T07:46:11.966Z,93.00
2018-02-12T07:48:39.493Z,93.00
2018-02-12T07:51:07.026Z,92.60
2018-02-12T07:53:34.566Z,93.00
2018-02-12T07:56:02.881Z,92.90
2018-02-12T07:58:30.429Z,92.90
2018-02-12T08:00:57.973Z,92.90
2018-02-12T08:03:26.310Z,92.40
2018-02-12T08:05:53.893Z,92.40
2018-02-12T08:08:21.437Z,92.20
2018-02-12T08:10:48.976Z,91.90
2018-02-12T08:13:16.510Z,92.10
2018-02-12T08:15:46.035Z,92.00
2018-02-12T08:18:13.578Z,91.90
2018-02-12T08:20:59.642Z,91.70
2018-02-12T08:23:49.803Z,91.70
2018-02-12T08:26:17.367Z,91.70
2018-02-12T08:28:44.908Z,91.80
2018-02-12T08:31:14.388Z,91.60
2018-02-12T08:33:41.930Z,91.30
2018-02-12T08:36:09.487Z,90.60
2018-02-12T08:38:37.782Z,90.30
2018-02-12T08:41:05.362Z,90.30
2018-02-12T08:43:32.918Z,90.20
2018-02-12T08:46:00.477Z,90.30
2018-02-12T08:48:28.011Z,89.10
2018-02-12T08:50:56.318Z,89.50
2018-02-12T08:53:27.316Z,89.40
2018-02-12T08:55:54.874Z,89.30
2018-02-12T08:58:23.209Z,89.90
2018-02-12T09:00:51.291Z,90.00
2018-02-12T09:03:18.838Z,89.00
2018-02-12T09:05:46.384Z,88.40
2018-02-12T09:08:19.975Z,89.00
2018-02-12T09:10:47.534Z,88.60
2018-02-12T09:13:15.068Z,89.10
2018-02-12T09:15:43.370Z,85.20
2018-02-12T09:18:10.919Z,85.10
2018-02-12T09:20:39.240Z,85.70
2018-02-12T09:23:07.550Z,85.20
2018-02-12T09:25:35.086Z,85.20
2018-02-12T09:28:03.871Z,83.50
2018-02-12T09:30:31.444Z,83.10
2018-02-12T09:32:58.978Z,83.90
2018-02-12T09:35:26.527Z,85.10
2018-02-12T09:37:54.059Z,82.40
2018-02-12T09:40:22.354Z,83.30
2018-02-12T09:42:53.362Z,83.40
2018-02-12T09:45:20.890Z,82.60
2018-02-12T09:47:48.438Z,82.50
2018-02-12T09:50:15.994Z,78.50
2018-02-12T09:52:43.535Z,80.60
2018-02-12T09:55:11.096Z,80.10
2018-02-12T09:57:38.646Z,78.80
2018-02-12T10:00:06.183Z,78.40
2018-02-12T10:02:34.495Z,77.20
2018-02-12T10:05:05.677Z,77.10
2018-02-12T10:07:34.190Z,79.40
2018-02-12T10:10:03.307Z,75.50
2018-02-12T10:12:34.076Z,75.50
2018-02-12T10:15:01.615Z,75.00
2018-02-12T10:17:32.468Z,75.00
2018-02-12T10:20:00.034Z,74.90
2018-02-12T10:22:27.606Z,72.20
2018-02-12T10:24:55.166Z,72.10
2018-02-12T10:27:22.700Z,72.50
2018-02-12T10:29:50.238Z,73.80
2018-02-12T10:32:17.780Z,75.00
2018-02-12T10:34:46.086Z,73.80
2018-02-12T10:37:13.642Z,73.80
2018-02-12T10:39:41.179Z,72.90
2018-02-12T10:42:09.486Z,72.00
2018-02-12T10:44:37.024Z,72.20
2018-02-12T10:47:04.586Z,72.80
2018-02-12T10:49:32.934Z,70.20
2018-02-12T10:52:00.473Z,70.20
2018-02-12T10:54:28.021Z,71.50
2018-02-12T10:56:55.546Z,70.60
2018-02-12T10:59:23.851Z,70.70
2018-02-12T11:01:51.414Z,70.80
2018-02-12T11:04:18.950Z,71.30
2018-02-12T11:06:46.507Z,74.10
2018-02-12T11:09:14.076Z,74.60
2018-02-12T11:11:41.624Z,72.20
2018-02-12T11:14:09.959Z,73.10
2018-02-12T11:16:38.281Z,72.30
2018-02-12T11:19:05.827Z,72.10
2018-02-12T11:21:34.132Z,74.90
2018-02-12T11:24:01.671Z,74.90
2018-02-12T11:26:29.999Z,70.50
2018-02-12T11:28:57.545Z,70.40
2018-02-12T11:31:25.082Z,72.10
2018-02-12T11:33:52.619Z,73.30
2018-02-12T11:42:16.450Z,71.40
2018-02-12T11:44:47.536Z,69.70
2018-02-12T11:47:15.071Z,69.80
2018-02-12T11:49:42.647Z,69.90
2018-02-12T11:52:10.189Z,69.80
2018-02-12T11:54:37.721Z,70.70
2018-02-12T11:57:06.047Z,67.50
2018-02-12T11:59:33.596Z,67.50
2018-02-12T12:02:01.159Z,66.60
2018-02-12T12:04:28.711Z,66.90
2018-02-12T12:06:56.257Z,68.90
2018-02-12T12:09:23.807Z,67.30
2018-02-12T12:11:52.126Z,68.20
2018-02-12T12:14:19.691Z,68.20
2018-02-12T12:16:47.227Z,67.30
2018-02-12T12:19:15.973Z,69.60
2018-02-12T12:21:43.509Z,68.50
2018-02-12T12:24:12.049Z,68.30
2018-02-12T12:26:39.637Z,82.90
2018-02-12T12:29:07.176Z,90.90
2018-02-12T12:31:34.731Z,93.20
2018-02-12T12:34:02.278Z,92.10
2018-02-12T12:36:30.610Z,92.00
2018-02-12T12:38:58.188Z,92.00
2018-02-12T12:41:25.750Z,92.30
2018-02-12T12:43:53.303Z,92.00
2018-02-12T12:46:20.834Z,90.70
2018-02-12T12:48:48.373Z,90.40
2018-02-12T12:51:32.683Z,89.30
2018-02-12T12:54:00.234Z,82.90
2018-02-12T12:56:27.778Z,81.40
2018-02-12T12:58:55.375Z,81.10
2018-02-12T13:01:23.711Z,78.50
2018-02-12T13:03:51.279Z,78.50
2018-02-12T13:06:18.815Z,79.10
2018-02-12T13:08:54.725Z,78.50
2018-02-12T13:11:22.266Z,79.70
2018-02-12T13:13:49.810Z,78.90
2018-02-12T13:16:17.371Z,78.40
2018-02-12T13:18:44.916Z,75.90
2018-02-12T13:21:12.475Z,73.30
2018-02-12T13:23:40.012Z,74.40
2018-02-12T13:26:07.564Z,72.60
2018-02-12T13:28:55.873Z,78.20
2018-02-12T13:31:26.646Z,78.20
2018-02-12T13:33:54.986Z,90.70
2018-02-12T13:36:26.083Z,90.70
2018-02-12T13:39:13.762Z,90.90
2018-02-12T13:41:44.658Z,91.50
2018-02-12T13:44:12.231Z,91.80
2018-02-12T13:46:39.779Z,92.40
2018-02-12T13:49:10.921Z,92.40
2018-02-12T13:51:41.684Z,92.70
2018-02-12T13:54:10.000Z,92.80
2018-02-12T13:56:46.911Z,92.40
2018-02-12T13:59:21.630Z,92.40
2018-02-12T14:01:49.978Z,92.30
2018-02-12T14:04:17.514Z,92.30
2018-02-12T14:09:42.703Z,93.70
2018-02-12T14:12:20.542Z,93.40
2018-02-12T14:17:45.966Z,93.00
2018-02-12T14:20:14.523Z,93.60
2018-02-12T14:23:01.472Z,94.50
2018-02-12T14:25:32.199Z,95.00
2018-02-12T14:28:13.255Z,95.50
2018-02-12T14:30:42.755Z,96.90
2018-02-12T14:36:06.746Z,97.30
2018-02-12T14:38:34.316Z,97.30
2018-02-12T14:41:01.853Z,96.90
2018-02-12T14:43:29.459Z,95.90
2018-02-12T14:45:57.810Z,95.70
2018-02-12T14:48:29.490Z,95.80
2018-02-12T14:50:57.047Z,95.80
2018-02-12T14:53:24.591Z,95.90
2018-02-12T14:55:52.175Z,96.50
2018-02-12T14:58:23.510Z,96.00
2018-02-12T15:00:51.088Z,95.70
2018-02-12T15:03:18.634Z,95.30
2018-02-12T15:05:46.222Z,95.20
2018-02-12T15:08:13.792Z,94.60
2018-02-12T15:10:42.121Z,94.00
2018-02-12T15:13:10.629Z,94.00
2018-02-12T15:15:38.171Z,94.10
2018-02-12T15:18:07.576Z,93.20
2018-02-12T15:20:47.610Z,93.70
2018-02-12T15:23:15.154Z,93.00
2018-02-12T15:25:43.461Z,92.20
2018-02-12T15:28:11.444Z,92.20
2018-02-12T15:30:39.036Z,91.90
2018-02-12T15:33:06.576Z,92.40
2018-02-12T15:35:39.945Z,92.40
2018-02-12T15:38:07.487Z,92.30
2018-02-12T15:40:35.783Z,90.70
2018-02-12T15:43:03.320Z,90.70
2018-02-12T15:45:30.911Z,90.20
2018-02-12T15:47:58.498Z,90.40
2018-02-12T15:50:26.045Z,90.00
2018-02-12T15:52:53.697Z,90.50
2018-02-12T15:55:21.255Z,90.70
2018-02-12T16:00:49.749Z,90.60
2018-02-12T16:03:17.298Z,90.90
2018-02-12T16:05:44.876Z,90.70
2018-02-12T16:08:12.437Z,90.90
2018-02-12T16:10:40.083Z,90.50
2018-02-12T16:13:07.626Z,90.30
2018-02-12T16:15:35.957Z,86.60
2018-02-12T16:18:03.514Z,86.60
2018-02-12T16:20:31.112Z,88.50
2018-02-12T16:23:00.428Z,88.40
2018-02-12T16:25:28.737Z,88.00
2018-02-12T16:27:56.299Z,87.90
2018-02-12T16:33:37.110Z,88.80
2018-02-12T16:36:04.652Z,88.80
2018-02-12T16:38:32.220Z,89.10
2018-02-12T16:41:00.193Z,85.50
2018-02-12T16:43:27.943Z,85.60
2018-02-12T16:45:56.019Z,84.60
2018-02-12T16:48:46.759Z,86.80
2018-02-12T16:51:14.311Z,87.80
2018-02-12T16:53:41.847Z,90.10
2018-02-12T16:58:44.670Z,92.00
2018-02-12T17:01:12.251Z,92.30
2018-02-12T17:06:40.890Z,92.60
2018-02-12T17:09:08.424Z,92.50
2018-02-12T17:11:36.751Z,92.50
2018-02-12T17:14:04.307Z,92.50
2018-02-12T17:16:31.870Z,92.60
2018-02-12T17:18:59.410Z,92.50
2018-02-12T17:21:33.084Z,92.60
2018-02-12T17:24:01.437Z,92.20
2018-02-12T17:26:28.985Z,92.20
2018-02-12T17:28:56.547Z,92.30
2018-02-12T17:31:24.098Z,92.30
2018-02-12T17:33:51.643Z,92.40
2018-02-12T17:36:19.240Z,92.00
2018-02-12T17:38:46.786Z,91.70
2018-02-12T17:41:14.339Z,91.40
2018-02-12T17:43:41.879Z,90.70
2018-02-12T17:46:09.441Z,91.10
2018-02-12T17:48:37.014Z,91.10
2018-02-12T17:51:04.568Z,90.90
2018-02-12T17:53:32.159Z,91.10
2018-02-12T17:56:05.485Z,91.10
2018-02-12T17:58:52.775Z,91.60
2018-02-12T18:01:20.369Z,91.60
2018-02-12T18:03:48.693Z,91.40
2018-02-12T18:06:16.241Z,91.40
2018-02-12T18:08:43.798Z,91.40
2018-02-12T18:11:11.334Z,91.50
2018-02-12T18:13:47.638Z,91.90
2018-02-12T18:16:15.202Z,91.90
2018-02-12T18:18:43.547Z,92.10
2018-02-12T18:21:11.133Z,92.10
2018-02-12T18:23:38.698Z,92.80
2018-02-12T18:26:13.191Z,92.60
2018-02-12T18:28:40.729Z,92.70
2018-02-12T18:31:09.072Z,93.00
2018-02-12T18:33:37.413Z,92.90
2018-02-12T18:36:04.975Z,92.90
2018-02-12T18:38:32.562Z,93.10
2018-02-12T18:41:00.960Z,93.50
2018-02-12T18:43:28.535Z,93.40
2018-02-12T18:45:56.076Z,93.80
2018-02-12T18:48:23.626Z,93.40
2018-02-12T18:50:51.171Z,93.40
2018-02-12T18:53:18.715Z,93.20
2018-02-12T18:55:46.286Z,93.00
2018-02-12T18:58:13.830Z,92.90
2018-02-12T19:00:41.382Z,92.70
2018-02-12T19:03:12.864Z,92.90
2018-02-12T19:05:40.425Z,92.90
2018-02-12T19:08:08.001Z,92.90
2018-02-12T19:10:35.567Z,92.80
2018-02-12T19:13:03.151Z,92.40
2018-02-12T19:15:30.740Z,92.30
2018-02-12T19:21:04.159Z,92.30
2018-02-12T19:23:32.470Z,92.00
2018-02-12T19:26:00.054Z,92.00
2018-02-12T19:28:53.656Z,91.80
2018-02-12T19:31:22.006Z,91.90
2018-02-12T19:33:56.898Z,91.90
2018-02-12T19:36:24.485Z,91.90
2018-02-12T19:38:52.035Z,92.20
2018-02-12T19:41:19.575Z,92.20
2018-02-12T19:46:42.349Z,92.00
2018-02-12T19:49:09.915Z,91.90
2018-02-12T19:51:37.450Z,92.00
2018-02-12T19:54:05.760Z,92.10
2018-02-12T19:59:27.802Z,92.20
2018-02-12T20:01:55.392Z,92.50
2018-02-12T20:04:22.958Z,92.90
2018-02-12T20:06:52.558Z,92.70
2018-02-12T20:09:20.125Z,92.70
2018-02-12T20:11:47.682Z,92.70
2018-02-12T20:14:15.225Z,92.60
2018-02-12T20:16:42.776Z,93.00
2018-02-12T20:19:10.360Z,92.70
2018-02-12T20:21:37.922Z,92.50
2018-02-12T20:24:05.475Z,92.60
2018-02-12T20:26:40.176Z,92.80
2018-02-12T20:29:07.717Z,92.70
2018-02-12T20:31:36.060Z,92.80
2018-02-12T20:34:03.691Z,92.80
2018-02-12T20:36:31.288Z,93.10
2018-02-12T20:38:58.846Z,93.60
2018-02-12T20:41:26.408Z,93.70
2018-02-12T20:43:53.985Z,93.90
2018-02-12T20:46:22.296Z,94.50
2018-02-12T20:48:49.852Z,94.40
2018-02-12T20:51:17.411Z,94.90
2018-02-12T20:53:44.974Z,94.90
2018-02-12T20:56:13.061Z,94.40
2018-02-12T20:58:40.635Z,95.00
2018-02-12T21:01:31.480Z,94.80
2018-02-12T21:03:59.032Z,94.90
2018-02-12T21:06:26.631Z,95.20
2018-02-12T21:08:56.193Z,95.50
2018-02-12T21:11:23.761Z,95.00
2018-02-12T21:13:51.341Z,95.20
2018-02-12T21:16:33.656Z,95.30
2018-02-12T21:19:02.093Z,95.20
2018-02-12T21:21:29.664Z,95.20
2018-02-12T21:23:57.303Z,94.90
2018-02-12T21:26:31.610Z,94.80
2018-02-12T21:29:15.978Z,95.00
2018-02-12T21:31:43.564Z,95.50
2018-02-12T21:34:11.128Z,94.80
2018-02-12T21:36:38.689Z,94.90
2018-02-12T21:39:06.280Z,94.80
2018-02-12T21:41:33.842Z,94.60
2018-02-12T21:44:01.414Z,94.70
2018-02-12T21:46:28.989Z,95.00
2018-02-12T21:48:56.538Z,94.90
2018-02-12T21:51:24.656Z,95.20
2018-02-12T21:53:57.318Z,94.90
2018-02-12T21:56:25.490Z,95.20
2018-02-12T21:58:53.687Z,94.90
2018-02-12T22:01:22.556Z,95.50
2018-02-12T22:03:50.833Z,95.50
2018-02-12T22:06:19.002Z,95.60
2018-02-12T22:08:47.184Z,95.80
2018-02-12T22:11:15.252Z,95.80
2018-02-12T22:13:43.335Z,95.60
2018-02-12T22:16:11.692Z,95.90
2018-02-12T22:18:39.791Z,95.40
2018-02-12T22:21:08.787Z,95.50
2018-02-12T22:23:37.462Z,95.10
2018-02-12T22:26:06.450Z,94.90
2018-02-12T22:28:34.528Z,94.90
2018-02-12T22:31:02.605Z,94.70
2018-02-12T22:39:29.172Z,94.80
2018-02-12T22:41:57.273Z,94.80
2018-02-12T22:44:25.519Z,94.50
2018-02-12T22:46:53.126Z,94.20
2018-02-12T22:49:21.446Z,94.10
2018-02-12T22:51:48.992Z,94.10
2018-02-12T22:54:16.564Z,94.50
2018-02-12T22:56:44.123Z,95.00
2018-02-12T22:59:11.666Z,95.20
2018-02-12T23:01:39.237Z,94.90
2018-02-12T23:04:06.778Z,95.30
2018-02-12T23:06:34.330Z,95.20
2018-02-12T23:12:00.311Z,94.50
2018-02-12T23:14:27.888Z,94.00
2018-02-12T23:17:01.016Z,93.90
2018-02-12T23:19:29.363Z,93.80
2018-02-12T23:21:56.902Z,93.70
2018-02-12T23:24:24.464Z,93.40
2018-02-12T23:26:52.053Z,93.20
2018-02-12T23:29:19.612Z,93.40
2018-02-12T23:31:47.166Z,93.20
2018-02-12T23:34:14.736Z,93.20
2018-02-12T23:36:42.292Z,93.30
2018-02-12T23:42:17.954Z,93.30
2018-02-12T23:44:45.527Z,93.30
2018-02-12T23:47:13.070Z,93.40
2018-02-12T23:49:40.615Z,93.20
2018-02-12T23:52:08.191Z,93.10
2018-02-12T23:54:35.732Z,93.10
2018-02-12T23:57:03.347Z,93.10
2018-02-12T23:59:31.707Z,93.00
